Aérodrome :
LOGIN :

S'inscrire | Disclaimer

   EN    FR    IT 

 










Légende :    VFR   VFR Marginal   IFR   IFR Intensif   IFR Très Intensif
Visi : 
Plafond : 
>= 8 km
>= 3000ft
5 à 8 km
1000 à 3000 ft
1500m à 5 km
500 à 1000 ft
800 à 1500m
200 à 500 ft
< 800m
< 200 ft
Symboles :   Orages  Brouillard  Fortes neiges  Fortes précipitations  Vent > 20 kt
SIGMETs :   Divers  Orages  Givrage  Turbulence  Onde Orograph.  Cendres Volcan.






- Altitude de l'aérodrome : 1197 ft
- Code IATA : SPM


ETAD - Spangdahlem Ab

DERNIER METAR :
  • 071259Z AUTO 25009KT 9999 -RA OVC013 08/06 A2998 RMK AO2 RAB59 CIG 012 RWY23 SLP151 $

METARs EXPIRÉS :
  • 071256Z AUTO 25011KT 9999 BKN014 OVC031 08/06 A2998 RMK AO2 RAB45E54 SLP151 P0000 T00760056 $
  • 071254Z AUTO 24011KT 9999 BKN014 OVC031 08/06 A2998 RMK AO2 RAB45E54 SLP151 $
  • 071156Z AUTO 25009KT 9999 BKN043 08/06 A2997 RMK AO2 SLP147 60000 T00770055 10078 20062 50004 $
  • 071119Z AUTO 24011KT 9999 FEW014 OVC041 08/05 A2998 RMK AO2 SLP151 $
  • 071056Z AUTO 24011G15KT 9999 OVC040 08/05 A2998 RMK AO2 SLP151 T00780051 $

TAF AMD TAF ETAD
Valide du 07 à 09h jusqu'au 08 à 13h UTC


070915Z 0709/0813 25012G18KT 9999 OVC034 610343 QNH2994INS
BECMG 0717/0718 23012KT 4400 BR OVC012 610303 QNH2990INS
BECMG 0802/0803 22012G25KT 8000 BR OVC005 QNH2973INS
BECMG 0809/0810 23015G28KT 8000 -SHRA BR BKN007 OVC010 610709 540204 QNH2965INS TX08/0712Z TN04/0806Z



MET'MAP, la Météo Aéronautique d'un coup d'oeil ! - Copyright ORBIFLY Décembre 2007 - Disclaimer

ORBIFLY MET'MAP TEAM :

Programmation & Développement : Alexandra Zaïnal
Sur une idée originale de : Baudouin d'Aumeries
Assistance à la programmation : Marc-Olivier Méhu
Soutien technique & logistique : Manuel Goepfert

Contact : metmap@orbifly.com




SOURCES & CREDITS :

   NOAA